createdAt,value
2018-08-13T00:04:25.662Z,96514.97
2018-08-13T00:09:24.203Z,96517.69
2018-08-13T00:14:18.732Z,96512.47
2018-08-13T00:19:13.226Z,96506.92
2018-08-13T00:24:07.907Z,96497.36
2018-08-13T00:29:02.445Z,96496.88
2018-08-13T00:33:56.940Z,96490.25
2018-08-13T00:38:51.549Z,96490.31
2018-08-13T00:43:46.084Z,96480.30
2018-08-13T00:48:40.608Z,96478.24
2018-08-13T00:53:35.092Z,96485.41
2018-08-13T00:58:29.656Z,96477.26
2018-08-13T01:03:24.132Z,96473.09
2018-08-13T01:08:18.730Z,96469.75
2018-08-13T01:13:13.265Z,96467.87
2018-08-13T01:18:07.812Z,96468.73
2018-08-13T01:23:02.345Z,96466.28
2018-08-13T01:27:56.824Z,96458.88
2018-08-13T01:32:51.303Z,96453.16
2018-08-13T01:37:45.823Z,96457.92
2018-08-13T01:42:40.308Z,96462.53
2018-08-13T01:47:34.773Z,96459.90
2018-08-13T01:52:29.260Z,96470.66
2018-08-13T01:57:23.888Z,96466.75
2018-08-13T02:02:18.432Z,96466.25
2018-08-13T02:07:13.296Z,96459.11
2018-08-13T02:12:08.458Z,96462.57
2018-08-13T02:17:03.032Z,96458.33
2018-08-13T02:21:57.760Z,96459.92
2018-08-13T02:26:52.445Z,96457.55
2018-08-13T02:31:47.129Z,96460.94
2018-08-13T02:36:41.701Z,96458.12
2018-08-13T02:41:36.392Z,96454.95
2018-08-13T02:46:30.941Z,96452.06
2018-08-13T02:51:25.432Z,96447.25
2018-08-13T02:56:20.025Z,96455.17
2018-08-13T03:01:14.518Z,96452.48
2018-08-13T03:06:09.065Z,96446.28
2018-08-13T03:11:03.520Z,96445.86
2018-08-13T03:15:58.021Z,96445.93
2018-08-13T03:20:52.528Z,96442.20
2018-08-13T03:25:47.131Z,96435.05
2018-08-13T03:30:41.745Z,96436.89
2018-08-13T03:35:36.265Z,96449.89
2018-08-13T03:40:30.801Z,96428.39
2018-08-13T03:45:25.381Z,96424.64
2018-08-13T03:50:19.944Z,96413.22
2018-08-13T03:55:14.536Z,96413.77
2018-08-13T04:00:13.636Z,96414.26
2018-08-13T04:05:09.260Z,96409.52
2018-08-13T04:10:04.041Z,96414.52
2018-08-13T04:14:58.547Z,96446.26
2018-08-13T04:19:53.094Z,96451.77
2018-08-13T04:24:47.674Z,96452.56
2018-08-13T04:29:42.249Z,96450.54
2018-08-13T04:34:36.784Z,96448.30
2018-08-13T04:39:31.281Z,96443.23
2018-08-13T04:44:25.881Z,96436.17
2018-08-13T04:49:20.384Z,96421.22
2018-08-13T04:54:14.916Z,96413.00
2018-08-13T04:59:09.489Z,96421.56
2018-08-13T05:04:04.056Z,96426.66
2018-08-13T05:08:58.649Z,96441.16
2018-08-13T05:13:53.196Z,96432.00
2018-08-13T05:18:47.705Z,96423.73
2018-08-13T05:23:42.312Z,96435.05
2018-08-13T05:28:36.888Z,96443.02
2018-08-13T05:33:31.910Z,96441.33
2018-08-13T05:38:26.629Z,96438.36
2018-08-13T05:43:21.329Z,96442.67
2018-08-13T05:48:16.040Z,96451.27
2018-08-13T05:53:10.643Z,96461.97
2018-08-13T05:58:05.420Z,96448.83
2018-08-13T06:03:00.001Z,96450.88
2018-08-13T06:07:54.632Z,96460.64
2018-08-13T06:12:49.345Z,96458.05
2018-08-13T06:17:43.978Z,96450.48
2018-08-13T06:22:39.461Z,96469.28
2018-08-13T06:27:34.399Z,96467.88
2018-08-13T06:32:30.113Z,96469.33
2018-08-13T06:37:24.896Z,96457.28
2018-08-13T06:42:19.462Z,96464.62
2018-08-13T06:47:13.937Z,96472.13
2018-08-13T06:52:08.460Z,96468.81
2018-08-13T06:57:03.293Z,96478.36
2018-08-13T07:01:57.781Z,96473.66
2018-08-13T07:06:52.296Z,96484.72
2018-08-13T07:11:46.810Z,96497.35
2018-08-13T07:16:41.300Z,96494.05
2018-08-13T07:26:50.777Z,96501.31
2018-08-13T07:31:45.216Z,96498.80
2018-08-13T07:36:39.768Z,96492.05
2018-08-13T07:41:34.237Z,96487.74
2018-08-13T07:46:29.680Z,96502.09
2018-08-13T07:51:25.623Z,96513.89
2018-08-13T07:56:41.108Z,96516.88
2018-08-13T08:01:35.580Z,96516.21
2018-08-13T08:06:30.728Z,96517.36
2018-08-13T08:11:25.821Z,96515.45
2018-08-13T08:16:57.173Z,96512.36
2018-08-13T08:21:51.755Z,96523.33
2018-08-13T08:26:46.698Z,96510.05
2018-08-13T08:31:41.380Z,96515.88
2018-08-13T08:36:36.020Z,96513.88
2018-08-13T08:41:30.747Z,96507.23
2018-08-13T08:46:25.427Z,96511.75
2018-08-13T08:51:19.888Z,96501.66
2018-08-13T08:56:14.336Z,96496.21
2018-08-13T09:01:08.808Z,96495.73
2018-08-13T09:06:04.693Z,96507.24
2018-08-13T09:10:59.356Z,96504.75
2018-08-13T09:15:54.347Z,96518.08
2018-08-13T09:21:05.733Z,96518.92
2018-08-13T09:27:16.187Z,96515.83
2018-08-13T09:32:30.009Z,96530.12
2018-08-13T09:37:26.313Z,96527.48
2018-08-13T09:42:24.584Z,96544.68
2018-08-13T09:47:27.139Z,96555.00
2018-08-13T09:52:22.510Z,96547.16
2018-08-13T09:57:16.962Z,96545.97
2018-08-13T10:02:12.236Z,96542.73
2018-08-13T10:07:07.180Z,96540.56
2018-08-13T10:12:02.375Z,96546.69
2018-08-13T10:16:57.408Z,96541.24
2018-08-13T10:21:51.880Z,96535.08
2018-08-13T10:26:46.847Z,96537.62
2018-08-13T10:31:41.392Z,96539.30
2018-08-13T10:36:35.837Z,96528.20
2018-08-13T10:41:30.329Z,96533.96
2018-08-13T10:46:25.364Z,96531.49
2018-08-13T10:51:20.273Z,96525.98
2018-08-13T10:56:14.886Z,96526.04
2018-08-13T11:01:09.788Z,96522.28
2018-08-13T11:06:04.233Z,96523.39
2018-08-13T11:10:58.722Z,96520.64
2018-08-13T11:15:53.199Z,96522.09
2018-08-13T11:20:47.624Z,96532.91
2018-08-13T11:25:42.377Z,96533.91
2018-08-13T11:30:37.047Z,96535.06
2018-08-13T11:35:31.601Z,96544.38
2018-08-13T11:40:26.050Z,96533.48
2018-08-13T11:45:20.932Z,96536.44
2018-08-13T11:50:17.881Z,96527.65
2018-08-13T11:55:12.722Z,96528.78
2018-08-13T12:00:10.605Z,96521.50
2018-08-13T12:05:06.796Z,96531.83
2018-08-13T12:10:01.378Z,96535.77
2018-08-13T12:15:02.962Z,96533.45
2018-08-13T12:19:57.676Z,96547.97
2018-08-13T12:25:12.040Z,96548.67
2018-08-13T12:30:09.917Z,96552.91
2018-08-13T12:35:06.557Z,96553.59
2018-08-13T12:40:01.293Z,96560.91
2018-08-13T12:44:55.864Z,96563.59
2018-08-13T12:49:50.423Z,96571.30
2018-08-13T12:54:45.025Z,96563.77
2018-08-13T12:59:39.605Z,96563.36
2018-08-13T13:04:34.360Z,96564.88
2018-08-13T13:09:28.961Z,96560.16
2018-08-13T13:14:23.651Z,96550.56
2018-08-13T13:19:18.249Z,96548.60
2018-08-13T13:24:12.894Z,96548.18
2018-08-13T13:29:07.610Z,96531.42
2018-08-13T13:34:02.285Z,96516.75
2018-08-13T13:38:57.220Z,96511.25
2018-08-13T13:43:51.853Z,96510.27
2018-08-13T13:48:46.739Z,96510.10
2018-08-13T13:53:41.627Z,96511.37
2018-08-13T13:58:36.246Z,96514.58
2018-08-13T14:03:31.400Z,96505.55
2018-08-13T14:08:31.709Z,96499.34
2018-08-13T14:13:26.287Z,96500.22
2018-08-13T14:24:25.536Z,96489.27
2018-08-13T14:29:20.153Z,96484.02
2018-08-13T14:34:14.901Z,96477.55
2018-08-13T14:39:11.965Z,96468.98
2018-08-13T14:44:06.716Z,96463.42
2018-08-13T14:49:01.268Z,96458.55
2018-08-13T14:53:55.898Z,96454.80
2018-08-13T14:58:50.484Z,96451.55
2018-08-13T15:03:45.311Z,96453.62
2018-08-13T15:08:40.349Z,96458.50
2018-08-13T15:13:35.116Z,96444.52
2018-08-13T15:18:29.925Z,96436.42
2018-08-13T15:23:33.185Z,96421.09
2018-08-13T15:28:27.904Z,96411.05
2018-08-13T15:33:22.620Z,96419.16
2018-08-13T15:38:17.093Z,96412.74
2018-08-13T15:43:11.740Z,96420.28
2018-08-13T15:48:06.648Z,96414.77
2018-08-13T15:53:01.161Z,96419.69
2018-08-13T15:57:55.688Z,96426.16
2018-08-13T16:02:50.447Z,96416.78
2018-08-13T16:07:45.356Z,96399.69
2018-08-13T16:12:40.037Z,96407.34
2018-08-13T16:17:34.773Z,96412.77
2018-08-13T16:22:29.413Z,96403.13
2018-08-13T16:27:23.981Z,96387.41
2018-08-13T16:32:18.521Z,96386.42
2018-08-13T16:37:13.121Z,96385.44
2018-08-13T16:42:07.726Z,96394.49
2018-08-13T16:47:02.313Z,96391.66
2018-08-13T16:51:56.877Z,96382.39
2018-08-13T16:56:51.453Z,96381.52
2018-08-13T17:01:46.026Z,96376.79
2018-08-13T17:06:40.683Z,96386.42
2018-08-13T17:11:35.640Z,96375.30
2018-08-13T17:16:30.287Z,96370.47
2018-08-13T17:21:24.841Z,96371.22
2018-08-13T17:26:19.545Z,96369.34
2018-08-13T17:31:14.192Z,96375.39
2018-08-13T17:36:08.806Z,96379.76
2018-08-13T17:41:03.437Z,96375.27
2018-08-13T17:45:58.017Z,96382.97
2018-08-13T17:50:52.538Z,96400.13
2018-08-13T17:55:47.169Z,96403.53
2018-08-13T18:00:41.724Z,96421.06
2018-08-13T18:05:36.254Z,96426.04
2018-08-13T18:10:33.704Z,96430.48
2018-08-13T18:15:28.379Z,96457.39
2018-08-13T18:20:22.954Z,96487.43
2018-08-13T18:25:17.630Z,96498.11
2018-08-13T18:30:16.683Z,96478.32
2018-08-13T18:35:11.618Z,96484.69
2018-08-13T18:40:10.174Z,96464.08
2018-08-13T18:45:05.804Z,96468.52
2018-08-13T18:50:00.418Z,96477.24
2018-08-13T18:54:54.941Z,96488.72
2018-08-13T18:59:49.505Z,96500.88
2018-08-13T19:04:44.076Z,96510.13
2018-08-13T19:09:38.560Z,96520.77
2018-08-13T19:14:33.110Z,96530.18
2018-08-13T19:19:27.641Z,96536.93
2018-08-13T19:24:22.245Z,96535.02
2018-08-13T19:29:16.852Z,96533.19
2018-08-13T19:34:11.552Z,96554.98
2018-08-13T19:39:12.065Z,96565.71
2018-08-13T19:44:06.660Z,96577.31
2018-08-13T19:49:01.197Z,96567.87
2018-08-13T19:53:55.700Z,96550.88
2018-08-13T19:58:50.225Z,96560.39
2018-08-13T20:03:44.980Z,96568.11
2018-08-13T20:08:39.567Z,96562.73
2018-08-13T20:13:34.135Z,96564.33
2018-08-13T20:18:28.661Z,96575.20
2018-08-13T20:23:23.201Z,96578.92
2018-08-13T20:28:17.712Z,96587.23
2018-08-13T20:33:12.230Z,96584.05
2018-08-13T20:38:07.241Z,96590.98
2018-08-13T20:43:01.768Z,96597.67
2018-08-13T20:47:56.287Z,96610.72
2018-08-13T20:52:52.725Z,96621.86
2018-08-13T20:57:48.604Z,96632.45
2018-08-13T21:02:44.097Z,96637.80
2018-08-13T21:07:38.616Z,96634.47
2018-08-13T21:12:33.169Z,96651.23
2018-08-13T21:17:27.710Z,96646.66
2018-08-13T21:22:22.368Z,96643.00
2018-08-13T21:27:17.273Z,96649.78
2018-08-13T21:32:11.789Z,96653.52
2018-08-13T21:37:06.394Z,96653.89
2018-08-13T21:42:00.978Z,96671.92
2018-08-13T21:46:55.458Z,96643.28
2018-08-13T21:51:50.021Z,96658.20
2018-08-13T21:56:44.566Z,96667.19
2018-08-13T22:01:44.405Z,96665.92
2018-08-13T22:06:38.960Z,96669.12
2018-08-13T22:11:33.440Z,96665.86
2018-08-13T22:16:27.960Z,96673.05
2018-08-13T22:21:22.455Z,96674.88
2018-08-13T22:26:16.951Z,96688.14
2018-08-13T22:31:12.303Z,96688.84
2018-08-13T22:36:07.036Z,96682.80
2018-08-13T22:41:01.505Z,96690.45
2018-08-13T22:45:56.054Z,96685.09
2018-08-13T22:50:50.551Z,96683.00
2018-08-13T22:55:45.037Z,96694.42
2018-08-13T23:00:39.541Z,96693.36
2018-08-13T23:05:34.068Z,96694.48
2018-08-13T23:10:28.528Z,96698.20
2018-08-13T23:15:23.140Z,96697.12
2018-08-13T23:20:28.281Z,96702.41
2018-08-13T23:25:22.872Z,96704.04
2018-08-13T23:30:17.492Z,96701.63
2018-08-13T23:35:12.000Z,96696.03
2018-08-13T23:40:07.573Z,96693.36
2018-08-13T23:45:02.025Z,96685.87
2018-08-13T23:49:56.650Z,96679.80
2018-08-13T23:54:51.120Z,96672.57
2018-08-13T23:59:45.589Z,96665.95
